createdAt,value
2022-09-29T00:02:51.622Z,8.80
2022-09-29T00:07:53.369Z,8.70
2022-09-29T00:12:55.029Z,8.60
2022-09-29T00:18:13.123Z,8.40
2022-09-29T00:23:15.545Z,8.20
2022-09-29T00:28:17.210Z,8.10
2022-09-29T00:33:18.833Z,7.90
2022-09-29T00:38:20.585Z,7.80
2022-09-29T00:43:49.495Z,7.80
2022-09-29T00:48:52.315Z,7.70
2022-09-29T00:53:54.778Z,7.60
2022-09-29T00:59:04.557Z,7.60
2022-09-29T01:04:11.783Z,7.50
2022-09-29T01:09:18.082Z,7.50
2022-09-29T01:14:20.783Z,7.50
2022-09-29T01:19:46.935Z,7.50
2022-09-29T01:25:02.302Z,7.50
2022-09-29T01:30:21.204Z,7.50
2022-09-29T01:35:45.586Z,7.60
2022-09-29T01:41:10.271Z,7.60
2022-09-29T01:46:33.449Z,7.70
2022-09-29T01:51:50.972Z,7.70
2022-09-29T01:57:01.505Z,7.60
2022-09-29T02:02:09.183Z,7.70
2022-09-29T02:07:20.091Z,7.70
2022-09-29T02:12:26.300Z,7.80
2022-09-29T02:17:35.257Z,7.70
2022-09-29T02:22:38.434Z,7.50
2022-09-29T02:27:40.956Z,7.30
2022-09-29T02:32:42.838Z,7.30
2022-09-29T02:37:57.244Z,7.20
2022-09-29T02:42:58.837Z,7.10
2022-09-29T02:48:41.136Z,7.00
2022-09-29T02:54:07.342Z,6.90
2022-09-29T02:59:35.793Z,6.90
2022-09-29T03:04:37.515Z,6.80
2022-09-29T03:09:39.537Z,6.80
2022-09-29T03:14:41.239Z,6.80
2022-09-29T03:19:42.918Z,6.70
2022-09-29T03:24:45.427Z,6.70
2022-09-29T03:29:47.065Z,6.60
2022-09-29T03:34:48.693Z,6.60
2022-09-29T03:39:50.427Z,6.60
2022-09-29T03:44:52.074Z,6.60
2022-09-29T03:49:53.702Z,6.60
2022-09-29T03:54:55.397Z,6.70
2022-09-29T03:59:57.259Z,6.60
2022-09-29T04:04:58.896Z,6.60
2022-09-29T04:10:00.519Z,6.70
2022-09-29T04:15:02.294Z,6.70
2022-09-29T04:20:04.112Z,6.70
2022-09-29T04:25:06.242Z,6.70
2022-09-29T04:30:08.608Z,6.70
2022-09-29T04:35:10.462Z,6.70
2022-09-29T04:40:12.101Z,6.60
2022-09-29T04:45:13.859Z,6.60
2022-09-29T04:50:15.567Z,6.50
2022-09-29T04:55:17.371Z,6.50
2022-09-29T05:00:19.156Z,6.50
2022-09-29T05:05:20.798Z,6.50
2022-09-29T05:10:22.420Z,6.40
2022-09-29T05:15:26.107Z,6.40
2022-09-29T05:20:34.181Z,6.40
2022-09-29T05:25:40.486Z,6.40
2022-09-29T05:30:43.352Z,6.40
2022-09-29T05:35:45.039Z,6.30
2022-09-29T05:40:46.748Z,6.40
2022-09-29T05:45:48.466Z,6.40
2022-09-29T05:50:50.851Z,6.50
2022-09-29T05:55:52.816Z,6.50
2022-09-29T06:00:54.529Z,6.60
2022-09-29T06:05:56.221Z,6.70
2022-09-29T06:11:04.121Z,6.70
2022-09-29T06:16:06.131Z,6.90
2022-09-29T06:21:11.589Z,7.00
2022-09-29T06:26:18.077Z,7.10
2022-09-29T06:31:26.092Z,7.10
2022-09-29T06:37:02.280Z,7.20
2022-09-29T06:42:04.148Z,7.30
2022-09-29T06:47:05.768Z,7.30
2022-09-29T06:52:18.840Z,7.40
2022-09-29T06:57:22.497Z,7.50
2022-09-29T07:02:24.175Z,7.60
2022-09-29T07:07:48.863Z,7.60
2022-09-29T07:12:53.504Z,7.80
2022-09-29T07:17:55.146Z,7.90
2022-09-29T07:22:57.681Z,8.00
2022-09-29T07:27:59.332Z,8.20
2022-09-29T07:33:02.495Z,8.20
2022-09-29T07:38:04.398Z,8.30
2022-09-29T07:43:07.504Z,8.50
2022-09-29T07:48:09.163Z,8.60
2022-09-29T07:53:11.835Z,8.70
2022-09-29T07:58:13.472Z,8.80
2022-09-29T08:03:15.106Z,8.90
2022-09-29T08:08:16.728Z,9.10
2022-09-29T08:13:18.747Z,9.20
2022-09-29T08:18:20.414Z,9.30
2022-09-29T08:23:23.299Z,9.50
2022-09-29T08:28:31.633Z,9.70
2022-09-29T08:33:35.081Z,9.70
2022-09-29T08:38:42.563Z,9.90
2022-09-29T08:43:46.305Z,10.00
2022-09-29T08:48:57.338Z,10.20
2022-09-29T08:54:13.413Z,10.40
2022-09-29T08:59:15.097Z,10.40
2022-09-29T09:04:31.750Z,10.50
2022-09-29T09:09:48.502Z,10.60
2022-09-29T09:15:14.100Z,10.70
2022-09-29T09:20:34.549Z,10.80
2022-09-29T09:25:59.689Z,10.90
2022-09-29T09:31:15.758Z,11.00
2022-09-29T09:36:33.188Z,11.20
2022-09-29T09:41:38.229Z,11.40
2022-09-29T09:47:11.734Z,11.60
2022-09-29T09:52:16.280Z,11.80
2022-09-29T09:57:44.238Z,11.80
2022-09-29T10:02:49.396Z,12.00
2022-09-29T10:07:52.658Z,12.10
2022-09-29T10:13:10.241Z,12.30
2022-09-29T10:18:32.208Z,12.60
2022-09-29T10:23:35.384Z,12.80
2022-09-29T10:28:44.140Z,13.10
2022-09-29T10:33:55.837Z,13.30
2022-09-29T10:39:02.390Z,13.30
2022-09-29T10:44:21.281Z,12.90
2022-09-29T10:49:28.147Z,12.70
2022-09-29T10:54:36.669Z,12.60
2022-09-29T10:59:49.596Z,12.60
2022-09-29T11:04:53.957Z,12.50
2022-09-29T11:09:55.717Z,12.40
2022-09-29T11:14:58.182Z,12.50
2022-09-29T11:20:02.354Z,12.70
2022-09-29T11:25:31.358Z,13.00
2022-09-29T11:30:57.978Z,13.20
2022-09-29T11:36:47.096Z,13.50
2022-09-29T11:42:00.224Z,14.10
2022-09-29T11:47:10.331Z,14.70
2022-09-29T11:52:28.092Z,15.40
2022-09-29T11:58:12.372Z,15.90
2022-09-29T12:03:32.206Z,16.10
2022-09-29T12:08:51.256Z,16.30
2022-09-29T12:14:14.709Z,15.80
2022-09-29T12:19:20.698Z,15.40
2022-09-29T12:24:37.229Z,15.10
2022-09-29T12:29:45.933Z,15.30
2022-09-29T12:34:52.964Z,15.50
2022-09-29T12:40:14.716Z,15.80
2022-09-29T12:45:32.848Z,15.70
2022-09-29T12:50:42.775Z,15.50
2022-09-29T12:55:56.381Z,15.20
2022-09-29T13:01:05.025Z,15.30
2022-09-29T13:06:25.495Z,15.70
2022-09-29T13:11:51.951Z,15.80
2022-09-29T13:17:04.332Z,15.80
2022-09-29T13:22:16.585Z,15.90
2022-09-29T13:27:39.555Z,16.10
2022-09-29T13:32:48.339Z,16.40
2022-09-29T13:37:57.920Z,16.70
2022-09-29T13:43:05.556Z,16.80
2022-09-29T13:48:16.301Z,16.40
2022-09-29T13:53:31.315Z,16.40
2022-09-29T13:58:48.293Z,16.40
2022-09-29T14:03:50.025Z,16.40
2022-09-29T14:09:07.547Z,16.40
2022-09-29T14:14:17.994Z,16.90
2022-09-29T14:19:43.824Z,17.20
2022-09-29T14:24:50.312Z,17.30
2022-09-29T14:30:01.758Z,17.80
2022-09-29T14:35:08.663Z,17.70
2022-09-29T14:40:29.312Z,18.20
2022-09-29T14:46:00.095Z,18.60
2022-09-29T14:51:37.793Z,17.80
2022-09-29T14:57:02.753Z,17.70
2022-09-29T15:02:25.002Z,17.30
2022-09-29T15:07:28.300Z,17.40
2022-09-29T15:12:32.213Z,17.40
2022-09-29T15:18:01.251Z,17.40
2022-09-29T15:24:00.739Z,17.00
2022-09-29T15:29:06.181Z,17.20
2022-09-29T15:34:17.304Z,16.90
2022-09-29T15:39:31.824Z,16.80
2022-09-29T15:44:34.042Z,16.70
2022-09-29T15:49:39.742Z,16.50
2022-09-29T15:54:47.453Z,16.20
2022-09-29T15:59:54.237Z,16.00
2022-09-29T16:05:06.158Z,15.90
2022-09-29T16:10:16.662Z,15.80
2022-09-29T16:15:33.792Z,15.60
2022-09-29T16:20:36.366Z,15.50
2022-09-29T16:25:38.023Z,15.30
2022-09-29T16:30:39.772Z,15.00
2022-09-29T16:36:13.646Z,14.90
2022-09-29T16:41:25.211Z,14.70
2022-09-29T16:46:27.681Z,14.60
2022-09-29T16:51:44.533Z,14.50
2022-09-29T16:56:49.182Z,14.30
2022-09-29T17:01:52.521Z,14.10
2022-09-29T17:06:54.844Z,13.90
2022-09-29T17:11:56.544Z,13.80
2022-09-29T17:16:58.544Z,13.80
2022-09-29T17:22:00.476Z,13.80
2022-09-29T17:27:20.530Z,13.80
2022-09-29T17:32:23.756Z,13.80
2022-09-29T17:37:26.337Z,13.70
2022-09-29T17:42:28.081Z,13.70
2022-09-29T17:47:32.020Z,13.60
2022-09-29T17:52:35.652Z,13.50
2022-09-29T17:57:38.764Z,13.50
2022-09-29T18:02:40.462Z,13.40
2022-09-29T18:07:42.203Z,13.30
2022-09-29T18:12:43.889Z,13.30
2022-09-29T18:17:45.755Z,13.10
2022-09-29T18:22:48.363Z,12.90
2022-09-29T18:27:50.050Z,12.70
2022-09-29T18:32:55.171Z,12.50
2022-09-29T18:37:58.129Z,12.30
2022-09-29T18:43:00.057Z,12.10
2022-09-29T18:48:04.464Z,11.90
2022-09-29T18:53:06.268Z,11.80
2022-09-29T18:58:12.725Z,11.60
2022-09-29T19:03:14.403Z,11.40
2022-09-29T19:08:17.594Z,11.30
2022-09-29T19:13:19.666Z,11.20
2022-09-29T19:18:23.705Z,11.00
2022-09-29T19:23:26.938Z,10.90
2022-09-29T19:28:28.631Z,10.80
2022-09-29T19:33:30.341Z,10.70
2022-09-29T19:38:32.493Z,10.60
2022-09-29T19:43:34.189Z,10.50
2022-09-29T19:48:36.441Z,10.50
2022-09-29T19:53:38.573Z,10.40
2022-09-29T19:58:41.207Z,10.40
2022-09-29T20:03:43.770Z,10.30
2022-09-29T20:08:45.668Z,10.30
2022-09-29T20:13:47.692Z,10.30
2022-09-29T20:18:49.437Z,10.20
2022-09-29T20:23:51.249Z,10.10
2022-09-29T20:28:53.151Z,10.00
2022-09-29T20:33:54.787Z,9.90
2022-09-29T20:38:56.633Z,9.90
2022-09-29T20:44:00.309Z,9.80
2022-09-29T20:49:04.758Z,9.70
2022-09-29T20:54:06.468Z,9.70
2022-09-29T20:59:12.650Z,9.60
2022-09-29T21:04:18.061Z,9.50
2022-09-29T21:09:22.629Z,9.50
2022-09-29T21:14:26.669Z,9.50
2022-09-29T21:19:28.564Z,9.40
2022-09-29T21:24:30.202Z,9.30
2022-09-29T21:29:31.834Z,9.30
2022-09-29T21:34:33.532Z,9.20
2022-09-29T21:39:35.186Z,9.10
2022-09-29T21:44:36.860Z,9.00
2022-09-29T21:49:38.499Z,8.90
2022-09-29T21:54:40.159Z,8.90
2022-09-29T21:59:41.777Z,8.90
2022-09-29T22:04:43.435Z,8.80
2022-09-29T22:09:45.268Z,8.70
2022-09-29T22:14:49.164Z,8.70
2022-09-29T22:19:50.893Z,8.70
2022-09-29T22:24:52.685Z,8.60
2022-09-29T22:29:55.548Z,8.60
2022-09-29T22:34:57.170Z,8.50
2022-09-29T22:39:58.861Z,8.50
2022-09-29T22:45:00.581Z,8.40
2022-09-29T22:50:02.288Z,8.40
2022-09-29T22:55:04.618Z,8.30
2022-09-29T23:00:06.867Z,8.20
2022-09-29T23:05:08.805Z,8.20
2022-09-29T23:10:11.250Z,8.20
2022-09-29T23:15:13.300Z,8.10
2022-09-29T23:20:14.965Z,8.10
2022-09-29T23:25:16.633Z,8.00
2022-09-29T23:30:18.319Z,8.00
2022-09-29T23:35:19.991Z,7.90
2022-09-29T23:40:21.663Z,7.90
2022-09-29T23:45:23.391Z,7.90
2022-09-29T23:50:26.012Z,7.90
2022-09-29T23:55:27.717Z,7.90
